createdAt,value
2023-02-23T00:01:27.874Z,9.30
2023-02-23T00:03:58.491Z,9.20
2023-02-23T00:06:28.464Z,9.30
2023-02-23T00:08:58.117Z,9.30
2023-02-23T00:11:27.691Z,9.20
2023-02-23T00:13:56.827Z,9.10
2023-02-23T00:16:27.252Z,9.10
2023-02-23T00:19:00.347Z,8.90
2023-02-23T00:21:32.217Z,8.90
2023-02-23T00:24:02.485Z,8.70
2023-02-23T00:26:35.016Z,8.90
2023-02-23T00:29:04.279Z,8.70
2023-02-23T00:31:32.855Z,8.80
2023-02-23T00:34:03.619Z,8.90
2023-02-23T00:36:33.844Z,8.90
2023-02-23T00:39:10.152Z,8.70
2023-02-23T00:41:38.751Z,8.70
2023-02-23T00:44:08.284Z,8.60
2023-02-23T00:46:36.640Z,8.50
2023-02-23T00:49:06.341Z,8.50
2023-02-23T00:51:37.396Z,8.50
2023-02-23T00:54:08.226Z,8.40
2023-02-23T00:56:36.237Z,8.40
2023-02-23T00:59:04.280Z,8.40
2023-02-23T01:01:32.367Z,8.30
2023-02-23T01:04:00.510Z,8.40
2023-02-23T01:06:29.958Z,8.40
2023-02-23T01:08:59.017Z,8.30
2023-02-23T01:11:30.975Z,8.30
2023-02-23T01:14:00.915Z,8.30
2023-02-23T01:16:31.194Z,8.30
2023-02-23T01:19:01.661Z,8.40
2023-02-23T01:21:33.380Z,8.30
2023-02-23T01:24:02.278Z,8.20
2023-02-23T01:26:33.964Z,8.10
2023-02-23T01:29:05.051Z,8.20
2023-02-23T01:31:33.918Z,8.50
2023-02-23T01:34:03.450Z,8.40
2023-02-23T01:36:35.846Z,8.30
2023-02-23T01:39:07.607Z,8.20
2023-02-23T01:41:37.069Z,8.30
2023-02-23T01:44:06.884Z,8.50
2023-02-23T01:46:39.812Z,8.70
2023-02-23T01:49:11.525Z,8.70
2023-02-23T01:51:43.439Z,8.70
2023-02-23T01:54:15.927Z,8.40
2023-02-23T01:56:49.270Z,8.30
2023-02-23T01:59:18.586Z,8.20
2023-02-23T02:01:48.157Z,8.10
2023-02-23T02:04:19.542Z,8.40
2023-02-23T02:06:53.515Z,8.50
2023-02-23T02:09:27.434Z,8.60
2023-02-23T02:11:55.474Z,8.70
2023-02-23T02:14:28.460Z,8.70
2023-02-23T02:17:25.495Z,8.70
2023-02-23T02:20:26.479Z,8.80
2023-02-23T02:23:33.371Z,8.80
2023-02-23T02:26:12.486Z,8.70
2023-02-23T02:28:54.767Z,8.80
2023-02-23T02:32:12.185Z,8.80
2023-02-23T02:35:11.781Z,8.90
2023-02-23T02:37:50.832Z,8.90
2023-02-23T02:40:26.990Z,9.00
2023-02-23T02:43:10.117Z,9.00
2023-02-23T02:45:46.624Z,8.60
2023-02-23T02:48:21.372Z,8.40
2023-02-23T02:50:55.504Z,8.40
2023-02-23T02:53:34.679Z,8.40
2023-02-23T02:56:06.440Z,8.40
2023-02-23T02:58:39.020Z,8.70
2023-02-23T03:01:31.774Z,8.90
2023-02-23T03:04:19.657Z,8.70
2023-02-23T03:07:11.448Z,8.60
2023-02-23T03:10:05.437Z,8.80
2023-02-23T03:12:58.221Z,8.90
2023-02-23T03:15:59.897Z,8.80
2023-02-23T03:19:13.487Z,8.60
2023-02-23T03:22:09.092Z,8.70
2023-02-23T03:25:04.994Z,8.90
2023-02-23T03:28:02.702Z,8.90
2023-02-23T03:30:57.840Z,8.90
2023-02-23T03:33:51.607Z,8.90
2023-02-23T03:36:43.883Z,9.00
2023-02-23T03:39:38.168Z,9.20
2023-02-23T03:42:29.312Z,9.10
2023-02-23T03:45:17.651Z,9.10
2023-02-23T03:48:04.402Z,9.20
2023-02-23T03:50:54.695Z,9.20
2023-02-23T03:53:45.749Z,9.20
2023-02-23T03:56:35.708Z,9.10
2023-02-23T03:59:24.800Z,8.90
2023-02-23T04:02:13.648Z,8.70
2023-02-23T04:05:03.167Z,8.90
2023-02-23T04:07:49.948Z,9.00
2023-02-23T04:10:35.996Z,8.80
2023-02-23T04:13:14.814Z,8.80
2023-02-23T04:15:48.316Z,8.70
2023-02-23T04:18:18.761Z,8.80
2023-02-23T04:20:46.805Z,8.90
2023-02-23T04:23:14.863Z,8.90
2023-02-23T04:25:43.088Z,8.90
2023-02-23T04:28:11.659Z,8.90
2023-02-23T04:30:39.701Z,8.90
2023-02-23T04:33:09.347Z,8.60
2023-02-23T04:35:37.774Z,8.50
2023-02-23T04:38:05.846Z,8.70
2023-02-23T04:40:33.896Z,8.80
2023-02-23T04:43:02.062Z,8.80
2023-02-23T04:45:30.535Z,8.80
2023-02-23T04:47:58.541Z,8.80
2023-02-23T04:50:27.892Z,8.70
2023-02-23T04:52:56.710Z,8.70
2023-02-23T04:55:26.403Z,8.80
2023-02-23T04:57:59.058Z,9.00
2023-02-23T05:00:29.390Z,9.00
2023-02-23T05:02:57.847Z,9.00
2023-02-23T05:05:27.208Z,8.90
2023-02-23T05:07:55.576Z,8.90
2023-02-23T05:10:23.811Z,9.00
2023-02-23T05:12:51.917Z,9.00
2023-02-23T05:15:20.042Z,9.00
2023-02-23T05:17:48.049Z,9.10
2023-02-23T05:20:16.682Z,9.00
2023-02-23T05:22:46.068Z,9.10
2023-02-23T05:25:14.084Z,9.10
2023-02-23T05:27:42.330Z,9.10
2023-02-23T05:30:11.509Z,9.20
2023-02-23T05:32:39.557Z,8.90
2023-02-23T05:35:08.997Z,8.90
2023-02-23T05:37:37.092Z,8.70
2023-02-23T05:40:07.929Z,8.50
2023-02-23T05:42:35.912Z,8.40
2023-02-23T05:45:04.831Z,8.60
2023-02-23T05:47:33.308Z,8.60
2023-02-23T05:50:01.354Z,8.60
2023-02-23T05:52:29.356Z,8.60
2023-02-23T05:54:57.336Z,8.70
2023-02-23T05:57:27.228Z,8.90
2023-02-23T05:59:55.245Z,8.80
2023-02-23T06:02:23.448Z,8.80
2023-02-23T06:04:51.859Z,8.60
2023-02-23T06:07:19.884Z,8.40
2023-02-23T06:09:47.915Z,8.30
2023-02-23T06:12:15.932Z,8.20
2023-02-23T06:14:45.495Z,8.30
2023-02-23T06:17:13.548Z,8.20
2023-02-23T06:19:41.554Z,8.10
2023-02-23T06:22:09.808Z,8.10
2023-02-23T06:24:37.840Z,8.20
2023-02-23T06:27:05.851Z,8.20
2023-02-23T06:29:34.362Z,8.10
2023-02-23T06:32:03.899Z,8.20
2023-02-23T06:34:33.834Z,8.20
2023-02-23T06:37:02.229Z,8.30
2023-02-23T06:39:30.344Z,8.30
2023-02-23T06:41:58.942Z,8.20
2023-02-23T06:44:26.976Z,8.10
2023-02-23T06:46:55.076Z,8.00
2023-02-23T06:49:24.618Z,8.00
2023-02-23T06:51:52.616Z,8.10
2023-02-23T06:54:20.608Z,8.00
2023-02-23T06:56:49.646Z,8.00
2023-02-23T06:59:17.680Z,8.00
2023-02-23T07:01:46.155Z,7.90
2023-02-23T07:04:16.673Z,7.90
2023-02-23T07:06:46.251Z,7.80
2023-02-23T07:09:15.445Z,7.80
2023-02-23T07:11:44.720Z,7.70
2023-02-23T07:14:21.476Z,7.70
2023-02-23T07:16:53.408Z,7.70
2023-02-23T07:19:21.415Z,7.60
2023-02-23T07:21:50.794Z,7.70
2023-02-23T07:24:18.931Z,7.60
2023-02-23T07:26:47.180Z,7.60
2023-02-23T07:29:15.319Z,7.70
2023-02-23T07:31:49.042Z,7.70
2023-02-23T07:34:17.881Z,7.80
2023-02-23T07:36:45.975Z,7.80
2023-02-23T07:39:15.399Z,7.80
2023-02-23T07:41:43.450Z,7.80
2023-02-23T07:44:19.467Z,7.80
2023-02-23T07:46:47.515Z,7.80
2023-02-23T07:49:15.806Z,7.80
2023-02-23T07:51:43.830Z,7.80
2023-02-23T07:54:11.816Z,7.80
2023-02-23T07:56:41.329Z,7.80
2023-02-23T07:59:09.533Z,7.80
2023-02-23T08:01:37.542Z,7.80
2023-02-23T08:04:05.809Z,7.80
2023-02-23T08:06:33.929Z,7.80
2023-02-23T08:09:04.342Z,7.80
2023-02-23T08:11:32.409Z,7.80
2023-02-23T08:14:01.806Z,7.80
2023-02-23T08:16:30.611Z,7.70
2023-02-23T08:18:59.405Z,7.70
2023-02-23T08:21:29.212Z,7.70
2023-02-23T08:23:57.459Z,7.70
2023-02-23T08:26:25.707Z,7.70
2023-02-23T08:28:54.186Z,7.70
2023-02-23T08:31:25.289Z,7.70
2023-02-23T08:33:53.958Z,7.70
2023-02-23T08:36:22.102Z,7.70
2023-02-23T08:38:50.108Z,7.60
2023-02-23T08:41:18.920Z,7.60
2023-02-23T08:43:47.078Z,7.60
2023-02-23T08:46:16.702Z,7.60
2023-02-23T08:48:46.723Z,7.60
2023-02-23T08:51:15.729Z,7.70
2023-02-23T08:53:43.968Z,7.70
2023-02-23T08:56:12.736Z,7.70
2023-02-23T08:58:41.062Z,7.70
2023-02-23T09:01:09.314Z,7.70
2023-02-23T09:03:39.744Z,7.70
2023-02-23T09:06:13.213Z,7.70
2023-02-23T09:08:41.344Z,7.70
2023-02-23T09:11:09.409Z,7.80
2023-02-23T09:13:37.478Z,7.80
2023-02-23T09:16:07.707Z,7.80
2023-02-23T09:18:36.402Z,7.80
2023-02-23T09:21:07.478Z,7.80
2023-02-23T09:23:37.044Z,7.80
2023-02-23T09:26:05.781Z,7.80
2023-02-23T09:28:34.761Z,7.80
2023-02-23T09:31:07.950Z,7.80
2023-02-23T09:33:36.123Z,7.80
2023-02-23T09:36:07.724Z,7.90
2023-02-23T09:38:37.129Z,7.80
2023-02-23T09:41:19.742Z,7.80
2023-02-23T09:43:56.909Z,7.80
2023-02-23T09:46:36.119Z,7.90
2023-02-23T09:49:06.676Z,7.90
2023-02-23T09:51:39.660Z,7.90
2023-02-23T09:54:13.933Z,7.90
2023-02-23T09:56:46.652Z,7.90
2023-02-23T09:59:16.633Z,7.90
2023-02-23T10:01:57.077Z,7.80
2023-02-23T10:04:29.776Z,7.70
2023-02-23T10:07:03.515Z,7.70
2023-02-23T10:09:46.397Z,7.70
2023-02-23T10:12:24.500Z,7.70
2023-02-23T10:15:06.462Z,7.70
2023-02-23T10:17:42.703Z,7.70
2023-02-23T10:20:23.283Z,7.70
2023-02-23T10:22:52.359Z,7.70
2023-02-23T10:25:26.307Z,7.70
2023-02-23T10:27:56.796Z,7.60
2023-02-23T10:30:26.697Z,7.60
2023-02-23T10:33:00.641Z,7.60
2023-02-23T10:35:30.994Z,7.60
2023-02-23T10:38:01.374Z,7.50
2023-02-23T10:40:33.628Z,7.50
2023-02-23T10:43:02.822Z,7.50
2023-02-23T10:45:35.648Z,7.50
2023-02-23T10:48:07.981Z,7.40
2023-02-23T10:50:40.189Z,7.40
2023-02-23T10:53:17.092Z,7.40
2023-02-23T10:55:47.864Z,7.40
2023-02-23T10:58:18.323Z,7.40
2023-02-23T11:00:55.560Z,7.40
2023-02-23T11:03:28.673Z,7.50
2023-02-23T11:05:57.364Z,7.50
2023-02-23T11:08:32.303Z,7.50
2023-02-23T11:11:22.151Z,7.50
2023-02-23T11:13:51.584Z,7.60
2023-02-23T11:16:21.867Z,7.60
2023-02-23T11:18:54.730Z,7.70
2023-02-23T11:21:26.136Z,7.70
2023-02-23T11:23:56.928Z,7.80
2023-02-23T11:26:32.657Z,7.90
2023-02-23T11:29:11.068Z,7.90
2023-02-23T11:31:40.691Z,8.00
2023-02-23T11:34:09.366Z,8.00
2023-02-23T11:36:38.413Z,8.00
2023-02-23T11:39:22.810Z,8.00
2023-02-23T11:42:16.944Z,8.10
2023-02-23T11:44:50.434Z,8.20
2023-02-23T11:47:20.739Z,8.20
2023-02-23T11:49:50.249Z,8.30
2023-02-23T11:52:21.085Z,8.30
2023-02-23T11:54:53.984Z,8.40
2023-02-23T11:57:25.817Z,8.40
2023-02-23T11:59:54.436Z,8.50
2023-02-23T12:02:25.133Z,8.50
2023-02-23T12:05:02.425Z,8.60
2023-02-23T12:07:41.573Z,8.80
2023-02-23T12:10:21.751Z,8.90
2023-02-23T12:13:03.723Z,8.90
2023-02-23T12:15:43.848Z,9.00
2023-02-23T12:18:23.618Z,9.00
2023-02-23T12:20:54.944Z,9.10
2023-02-23T12:23:27.304Z,9.10
2023-02-23T12:25:59.622Z,9.20
2023-02-23T12:28:35.030Z,9.20
2023-02-23T12:31:07.868Z,9.30
2023-02-23T12:33:41.385Z,9.20
2023-02-23T12:36:20.738Z,9.10
2023-02-23T12:38:55.506Z,9.00
2023-02-23T12:41:33.072Z,8.90
2023-02-23T12:44:13.392Z,8.70
2023-02-23T12:46:48.906Z,8.70
2023-02-23T12:49:23.548Z,8.60
2023-02-23T12:51:53.924Z,8.70
2023-02-23T12:54:21.940Z,8.70
2023-02-23T12:57:04.774Z,8.80
2023-02-23T12:59:52.245Z,8.80
2023-02-23T13:02:28.242Z,8.80
2023-02-23T13:05:12.997Z,8.80
2023-02-23T13:07:50.070Z,8.80
2023-02-23T13:10:30.772Z,8.70
2023-02-23T13:13:06.796Z,8.60
2023-02-23T13:15:51.832Z,8.60
2023-02-23T13:18:25.694Z,8.60
2023-02-23T13:21:00.092Z,8.60
2023-02-23T13:23:34.794Z,8.60
2023-02-23T13:26:12.907Z,8.60
2023-02-23T13:28:52.146Z,8.60
2023-02-23T13:31:25.621Z,8.60
2023-02-23T13:33:56.231Z,8.60
2023-02-23T13:36:24.774Z,8.60
2023-02-23T13:39:19.373Z,8.60
2023-02-23T13:42:06.429Z,8.60
2023-02-23T13:44:38.409Z,8.60
2023-02-23T13:47:18.670Z,8.60
2023-02-23T13:49:52.959Z,8.50
2023-02-23T13:52:27.465Z,8.50
2023-02-23T13:55:03.648Z,8.50
2023-02-23T13:57:33.336Z,8.50
2023-02-23T14:00:02.264Z,8.50
2023-02-23T14:02:40.947Z,8.50
2023-02-23T14:05:18.977Z,8.50
2023-02-23T14:07:52.329Z,8.60
2023-02-23T14:10:23.001Z,8.60
2023-02-23T14:13:48.732Z,8.70
2023-02-23T14:16:19.460Z,8.70
2023-02-23T14:19:15.594Z,8.60
2023-02-23T14:21:49.886Z,8.60
2023-02-23T14:24:21.138Z,8.50
2023-02-23T14:27:40.034Z,8.50
2023-02-23T14:30:49.769Z,8.50
2023-02-23T14:33:36.731Z,8.50
2023-02-23T14:36:30.965Z,8.50
2023-02-23T14:39:01.658Z,8.50
2023-02-23T14:41:38.134Z,8.40
2023-02-23T14:44:17.143Z,8.40
2023-02-23T14:46:57.585Z,8.30
2023-02-23T14:49:28.832Z,8.30
2023-02-23T14:52:01.590Z,8.30
2023-02-23T14:54:34.244Z,8.30
2023-02-23T14:57:04.373Z,8.30
2023-02-23T14:59:39.175Z,8.30
2023-02-23T15:02:11.376Z,8.20
2023-02-23T15:04:39.860Z,8.10
2023-02-23T15:07:21.082Z,8.10
2023-02-23T15:09:49.286Z,8.10
2023-02-23T15:12:20.247Z,8.00
2023-02-23T15:14:50.694Z,8.10
2023-02-23T15:17:21.922Z,8.00
2023-02-23T15:20:06.049Z,8.10
2023-02-23T15:22:43.017Z,8.00
2023-02-23T15:25:16.606Z,8.00
2023-02-23T15:27:46.212Z,7.90
2023-02-23T15:30:27.592Z,7.80
2023-02-23T15:33:03.889Z,7.70
2023-02-23T15:35:37.832Z,7.60
2023-02-23T15:38:18.090Z,7.60
2023-02-23T15:40:57.227Z,7.50
2023-02-23T15:43:29.782Z,7.40
2023-02-23T15:46:04.275Z,7.30
2023-02-23T15:48:42.677Z,7.10
2023-02-23T15:51:23.756Z,7.10
2023-02-23T15:53:54.256Z,7.00
2023-02-23T15:56:27.443Z,7.00
2023-02-23T15:58:59.419Z,7.00
2023-02-23T16:01:30.534Z,7.00
2023-02-23T16:04:01.851Z,7.00
2023-02-23T16:06:34.252Z,6.90
2023-02-23T16:09:19.893Z,6.90
2023-02-23T16:11:52.053Z,6.80
2023-02-23T16:14:21.908Z,6.80
2023-02-23T16:17:08.518Z,6.70
2023-02-23T16:19:41.054Z,6.70
2023-02-23T16:22:21.404Z,6.70
2023-02-23T16:24:58.947Z,6.60
2023-02-23T16:27:28.566Z,6.60
2023-02-23T16:30:07.184Z,6.60
2023-02-23T16:32:40.834Z,6.60
2023-02-23T16:35:18.964Z,6.50
2023-02-23T16:38:03.574Z,6.50
2023-02-23T16:40:34.864Z,6.40
2023-02-23T16:43:04.756Z,6.40
2023-02-23T16:45:36.115Z,6.40
2023-02-23T16:48:11.785Z,6.30
2023-02-23T16:50:42.324Z,6.30
2023-02-23T16:53:13.893Z,6.30
2023-02-23T16:55:49.903Z,6.30
2023-02-23T16:58:21.963Z,6.30
2023-02-23T17:00:52.193Z,6.20
2023-02-23T17:03:23.055Z,6.20
2023-02-23T17:05:51.265Z,6.10
2023-02-23T17:08:19.449Z,6.20
2023-02-23T17:10:51.357Z,6.10
2023-02-23T17:13:21.074Z,6.10
2023-02-23T17:15:51.780Z,6.10
2023-02-23T17:18:21.970Z,6.00
2023-02-23T17:20:50.163Z,6.10
2023-02-23T17:23:19.261Z,6.00
2023-02-23T17:25:48.822Z,6.00
2023-02-23T17:28:16.906Z,6.00
2023-02-23T17:30:45.248Z,5.90
2023-02-23T17:33:13.569Z,5.90
2023-02-23T17:35:42.795Z,5.90
2023-02-23T17:38:11.263Z,5.90
2023-02-23T17:40:39.644Z,5.90
2023-02-23T17:43:09.057Z,5.90
2023-02-23T17:45:37.372Z,5.80
2023-02-23T17:48:06.770Z,5.80
2023-02-23T17:50:34.914Z,5.70
2023-02-23T17:53:02.951Z,5.70
2023-02-23T17:55:31.161Z,5.60
2023-02-23T17:57:59.226Z,5.50
2023-02-23T18:00:29.093Z,5.50
2023-02-23T18:02:57.384Z,5.50
2023-02-23T18:05:25.550Z,5.50
2023-02-23T18:07:53.690Z,5.40
2023-02-23T18:10:25.379Z,5.30
2023-02-23T18:12:53.661Z,5.30
2023-02-23T18:15:21.812Z,5.30
2023-02-23T18:17:54.460Z,5.20
2023-02-23T18:20:22.911Z,5.20
2023-02-23T18:22:51.211Z,5.10
2023-02-23T18:25:26.304Z,5.10
2023-02-23T18:27:55.227Z,5.10
2023-02-23T18:30:24.765Z,5.10
2023-02-23T18:32:57.291Z,5.00
2023-02-23T18:35:25.438Z,4.90
2023-02-23T18:37:53.559Z,4.90
2023-02-23T18:40:23.771Z,4.90
2023-02-23T18:42:51.952Z,4.80
2023-02-23T18:45:20.129Z,4.80
2023-02-23T18:47:48.300Z,4.80
2023-02-23T18:50:19.276Z,4.70
2023-02-23T18:52:48.882Z,4.70
2023-02-23T18:55:17.625Z,4.70
2023-02-23T18:57:45.709Z,4.70
2023-02-23T19:00:16.081Z,4.70
2023-02-23T19:02:46.329Z,4.70
2023-02-23T19:05:16.293Z,4.70
2023-02-23T19:07:45.977Z,4.70
2023-02-23T19:10:16.157Z,4.70
2023-02-23T19:12:44.240Z,4.60
2023-02-23T19:15:13.152Z,4.70
2023-02-23T19:17:41.569Z,4.70
2023-02-23T19:20:14.098Z,4.70
2023-02-23T19:22:42.723Z,4.70
2023-02-23T19:25:14.444Z,4.90
2023-02-23T19:27:43.142Z,4.90
2023-02-23T19:30:14.248Z,4.80
2023-02-23T19:32:42.814Z,4.90
2023-02-23T19:35:14.568Z,5.00
2023-02-23T19:37:50.245Z,5.10
2023-02-23T19:40:22.673Z,5.00
2023-02-23T19:42:53.034Z,5.00
2023-02-23T19:45:21.846Z,5.10
2023-02-23T19:47:52.584Z,5.00
2023-02-23T19:50:21.401Z,5.00
2023-02-23T19:52:49.968Z,5.10
2023-02-23T19:55:20.352Z,5.00
2023-02-23T19:57:48.672Z,5.00
2023-02-23T20:00:17.521Z,5.10
2023-02-23T20:02:45.684Z,5.10
2023-02-23T20:05:15.262Z,5.10
2023-02-23T20:07:43.637Z,5.00
2023-02-23T20:10:16.095Z,4.90
2023-02-23T20:12:45.521Z,4.80
2023-02-23T20:15:15.330Z,4.80
2023-02-23T20:17:43.628Z,4.80
2023-02-23T20:20:13.000Z,4.70
2023-02-23T20:22:44.647Z,4.70
2023-02-23T20:25:15.548Z,4.80
2023-02-23T20:27:45.852Z,4.70
2023-02-23T20:30:15.223Z,4.70
2023-02-23T20:32:43.518Z,4.80
2023-02-23T20:35:14.106Z,4.80
2023-02-23T20:37:42.689Z,4.80
2023-02-23T20:40:18.472Z,4.80
2023-02-23T20:42:49.266Z,4.80
2023-02-23T20:45:19.713Z,4.90
2023-02-23T20:47:51.925Z,4.90
2023-02-23T20:50:21.534Z,5.00
2023-02-23T20:52:50.402Z,4.90
2023-02-23T20:55:19.696Z,5.00
2023-02-23T20:57:49.481Z,4.90
2023-02-23T21:00:31.841Z,5.00
2023-02-23T21:03:01.496Z,5.10
2023-02-23T21:05:32.241Z,5.20
2023-02-23T21:08:01.310Z,5.10
2023-02-23T21:10:33.749Z,5.00
2023-02-23T21:13:03.995Z,4.90
2023-02-23T21:15:32.939Z,4.90
2023-02-23T21:18:01.704Z,4.80
2023-02-23T21:20:30.004Z,4.90
2023-02-23T21:22:58.111Z,4.90
2023-02-23T21:25:28.325Z,4.90
2023-02-23T21:27:56.504Z,4.80
2023-02-23T21:30:28.641Z,4.80
2023-02-23T21:32:59.305Z,4.80
2023-02-23T21:35:27.730Z,4.70
2023-02-23T21:37:56.828Z,4.70
2023-02-23T21:40:25.202Z,4.80
2023-02-23T21:42:53.415Z,4.90
2023-02-23T21:45:21.731Z,4.90
2023-02-23T21:47:51.190Z,5.10
2023-02-23T21:50:20.401Z,5.10
2023-02-23T21:52:53.074Z,5.00
2023-02-23T21:55:22.074Z,5.00
2023-02-23T21:57:51.162Z,4.90
2023-02-23T22:00:20.823Z,4.90
2023-02-23T22:02:50.570Z,4.80
2023-02-23T22:05:20.798Z,4.80
2023-02-23T22:07:50.553Z,4.80
2023-02-23T22:10:19.332Z,4.70
2023-02-23T22:12:47.400Z,4.70
2023-02-23T22:15:16.695Z,4.70
2023-02-23T22:17:45.188Z,4.60
2023-02-23T22:20:15.435Z,4.60
2023-02-23T22:22:43.645Z,4.60
2023-02-23T22:25:11.892Z,4.60
2023-02-23T22:27:41.611Z,4.60
2023-02-23T22:30:12.155Z,4.60
2023-02-23T22:32:40.749Z,4.60
2023-02-23T22:35:09.648Z,4.60
2023-02-23T22:37:39.466Z,4.50
2023-02-23T22:40:13.010Z,4.50
2023-02-23T22:42:43.226Z,4.50
2023-02-23T22:45:12.137Z,4.50
2023-02-23T22:47:40.305Z,4.50
2023-02-23T22:50:11.919Z,4.40
2023-02-23T22:52:43.041Z,4.50
2023-02-23T22:55:13.064Z,4.50
2023-02-23T22:57:41.281Z,4.50
2023-02-23T23:00:11.478Z,4.40
2023-02-23T23:02:39.555Z,4.40
2023-02-23T23:05:08.969Z,4.40
2023-02-23T23:07:37.346Z,4.40
2023-02-23T23:10:09.287Z,4.50
2023-02-23T23:12:40.113Z,4.50
2023-02-23T23:15:14.652Z,4.50
2023-02-23T23:17:47.990Z,4.50
2023-02-23T23:20:17.643Z,4.60
2023-02-23T23:22:45.719Z,4.50
2023-02-23T23:25:15.693Z,4.40
2023-02-23T23:27:45.719Z,4.40
2023-02-23T23:30:15.371Z,4.40
2023-02-23T23:32:43.510Z,4.40
2023-02-23T23:35:13.430Z,4.50
2023-02-23T23:37:41.513Z,4.40
2023-02-23T23:40:14.621Z,4.60
2023-02-23T23:42:46.085Z,4.60
2023-02-23T23:45:16.198Z,4.50
2023-02-23T23:47:45.003Z,4.70
2023-02-23T23:50:15.486Z,4.70
2023-02-23T23:52:45.171Z,4.80
2023-02-23T23:55:15.616Z,4.90
2023-02-23T23:57:45.075Z,4.80
